createdAt,value
2019-03-20T00:00:02.230Z,3.53
2019-03-20T00:05:05.278Z,3.6
2019-03-20T00:10:07.837Z,3.63
2019-03-20T00:15:05.593Z,3.65
2019-03-20T00:20:05.576Z,3.72
2019-03-20T00:25:05.034Z,3.72
2019-03-20T00:30:05.641Z,3.74
2019-03-20T00:35:04.863Z,3.71
2019-03-20T00:40:02.561Z,3.73
2019-03-20T00:45:02.491Z,3.73
2019-03-20T00:50:03.125Z,3.72
2019-03-20T00:55:02.682Z,3.7
2019-03-20T01:00:01.793Z,3.62
2019-03-20T01:05:12.106Z,3.55
2019-03-20T01:10:03.459Z,3.49
2019-03-20T01:15:02.597Z,3.48
2019-03-20T01:20:02.715Z,3.55
2019-03-20T01:25:02.886Z,3.56
2019-03-20T01:30:01.862Z,3.57
2019-03-20T01:35:04.444Z,3.49
2019-03-20T01:40:04.904Z,3.34
2019-03-20T01:45:03.122Z,3.16
2019-03-20T01:50:05.077Z,2.86
2019-03-20T01:55:04.240Z,2.49
2019-03-20T02:00:03.961Z,2.2
2019-03-20T02:05:09.159Z,1.84
2019-03-20T02:10:02.838Z,1.85
2019-03-20T02:15:03.314Z,2.24
2019-03-20T02:20:04.622Z,2.68
2019-03-20T02:25:05.972Z,2.94
2019-03-20T02:30:06.851Z,3.12
2019-03-20T02:35:05.578Z,3.14
2019-03-20T02:40:06.986Z,3.16
2019-03-20T02:45:03.722Z,3.05
2019-03-20T02:50:04.796Z,3.05
2019-03-20T02:55:04.200Z,3.02
2019-03-20T03:00:02.422Z,2.36
2019-03-20T03:05:04.422Z,2.17
2019-03-20T03:10:04.117Z,2.06
2019-03-20T03:15:02.787Z,2.08
2019-03-20T03:20:06.381Z,2.19
2019-03-20T03:25:03.934Z,2.35
2019-03-20T03:30:06.383Z,2.42
2019-03-20T03:35:07.586Z,2.53
2019-03-20T03:40:05.532Z,2.64
2019-03-20T03:45:04.970Z,2.71
2019-03-20T03:50:07.326Z,2.84
2019-03-20T03:55:07.184Z,2.93
2019-03-20T04:00:03.408Z,2.91
2019-03-20T04:05:04.738Z,2.93
2019-03-20T04:10:04.053Z,2.91
2019-03-20T04:15:03.788Z,2.86
2019-03-20T04:20:04.062Z,2.76
2019-03-20T04:25:06.122Z,2.66
2019-03-20T04:30:01.863Z,2.46
2019-03-20T04:35:05.721Z,2.38
2019-03-20T04:40:05.483Z,2.37
2019-03-20T04:45:02.642Z,2.35
2019-03-20T04:50:05.522Z,2.42
2019-03-20T04:55:04.626Z,2.53
2019-03-20T05:00:02.362Z,2.6
2019-03-20T05:05:05.520Z,2.8
2019-03-20T05:10:03.509Z,2.81
2019-03-20T05:15:05.847Z,2.81
2019-03-20T05:20:04.652Z,2.73
2019-03-20T05:25:05.320Z,2.69
2019-03-20T05:30:02.454Z,2.79
2019-03-20T05:35:04.026Z,2.78
2019-03-20T05:40:04.419Z,2.83
2019-03-20T05:45:02.177Z,2.86
2019-03-20T05:50:05.480Z,2.85
2019-03-20T05:55:02.977Z,2.81
2019-03-20T06:00:02.637Z,2.91
2019-03-20T06:05:02.924Z,3.02
2019-03-20T06:10:02.570Z,3.1
2019-03-20T06:15:02.988Z,3.24
2019-03-20T06:20:02.871Z,3.33
2019-03-20T06:25:06.109Z,3.49
2019-03-20T06:30:02.763Z,3.69
2019-03-20T06:35:05.548Z,3.83
2019-03-20T06:40:04.842Z,4
2019-03-20T06:45:02.489Z,4.2
2019-03-20T06:50:04.241Z,4.41
2019-03-20T06:55:04.118Z,4.66
2019-03-20T07:00:02.511Z,4.88
2019-03-20T07:05:04.739Z,5.11
2019-03-20T07:10:02.606Z,5.23
2019-03-20T07:15:05.350Z,5.42
2019-03-20T07:20:04.147Z,5.61
2019-03-20T07:25:04.750Z,5.85
2019-03-20T07:30:02.443Z,6.01
2019-03-20T07:35:04.021Z,6.16
2019-03-20T07:40:05.032Z,6.45
2019-03-20T07:45:02.743Z,6.93
2019-03-20T07:50:03.980Z,7.41
2019-03-20T07:55:05.413Z,7.75
2019-03-20T08:00:03.702Z,8.08
2019-03-20T08:05:03.841Z,8.13
2019-03-20T08:10:04.204Z,8.06
2019-03-20T08:15:03.203Z,8.68
2019-03-20T08:20:04.712Z,9.18
2019-03-20T08:25:06.407Z,9.32
2019-03-20T08:30:03.023Z,9.32
2019-03-20T08:35:05.320Z,9.46
2019-03-20T08:40:04.190Z,9.71
2019-03-20T08:45:02.604Z,9.7
2019-03-20T08:50:05.659Z,9.67
2019-03-20T08:55:04.740Z,9.68
2019-03-20T09:00:03.049Z,9.94
2019-03-20T09:05:06.205Z,10.16
2019-03-20T09:10:03.902Z,10.34
2019-03-20T09:15:02.642Z,10.6
2019-03-20T09:20:04.243Z,10.69
2019-03-20T09:25:04.239Z,10.45
2019-03-20T09:30:02.782Z,10.55
2019-03-20T09:35:03.623Z,10.38
2019-03-20T09:40:04.101Z,10.57
2019-03-20T09:45:02.510Z,10.69
2019-03-20T09:50:04.293Z,11
2019-03-20T09:55:04.777Z,11.36
2019-03-20T10:00:02.351Z,11.43
2019-03-20T10:05:04.292Z,12.05
2019-03-20T10:10:04.791Z,12.16
2019-03-20T10:15:04.291Z,12.26
2019-03-20T10:20:04.417Z,12.22
2019-03-20T10:25:06.078Z,12.03
2019-03-20T10:30:02.573Z,12.3
2019-03-20T10:35:04.999Z,12.06
2019-03-20T10:40:05.848Z,12.06
2019-03-20T10:45:02.599Z,12.32
2019-03-20T10:50:05.034Z,12.1
2019-03-20T10:55:05.798Z,12.1
2019-03-20T11:00:03.109Z,12.17
2019-03-20T11:05:05.857Z,12.38
2019-03-20T11:10:04.898Z,12.26
2019-03-20T11:15:02.350Z,11.78
2019-03-20T11:20:04.604Z,11.96
2019-03-20T11:25:05.040Z,12.08
2019-03-20T11:30:01.876Z,12.16
2019-03-20T11:35:04.413Z,12.17
2019-03-20T11:40:04.446Z,12.21
2019-03-20T11:45:02.393Z,12.11
2019-03-20T11:50:04.841Z,11.88
2019-03-20T11:55:04.265Z,11.98
2019-03-20T12:00:02.509Z,12.14
2019-03-20T12:05:04.208Z,12.16
2019-03-20T12:10:02.811Z,12
2019-03-20T12:15:02.186Z,12.08
2019-03-20T12:20:02.980Z,12.19
2019-03-20T12:25:02.995Z,12.12
2019-03-20T12:30:01.828Z,12.34
2019-03-20T12:35:03.093Z,12.55
2019-03-20T12:40:03.022Z,12.25
2019-03-20T12:45:02.974Z,12.27
2019-03-20T12:50:04.933Z,12.22
2019-03-20T12:55:05.799Z,12.34
2019-03-20T13:00:02.931Z,12.46
2019-03-20T13:05:04.473Z,12.67
2019-03-20T13:10:05.261Z,12.64
2019-03-20T13:15:02.910Z,12.44
2019-03-20T13:20:04.399Z,12.47
2019-03-20T13:25:06.216Z,12.52
2019-03-20T13:30:03.260Z,12.55
2019-03-20T13:35:04.949Z,12.25
2019-03-20T13:40:13.771Z,12.28
2019-03-20T13:45:02.672Z,12.49
2019-03-20T13:50:04.556Z,12.64
2019-03-20T13:55:04.276Z,12.79
2019-03-20T14:00:02.751Z,12.82
2019-03-20T14:05:04.561Z,12.85
2019-03-20T14:10:04.218Z,12.71
2019-03-20T14:15:02.934Z,12.74
2019-03-20T14:20:04.900Z,13.11
2019-03-20T14:25:04.164Z,13
2019-03-20T14:30:02.906Z,12.74
2019-03-20T14:35:04.044Z,12.75
2019-03-20T14:40:04.391Z,12.88
2019-03-20T14:45:03.099Z,13.07
2019-03-20T14:50:04.589Z,13.33
2019-03-20T14:55:04.963Z,13.53
2019-03-20T15:00:02.611Z,13.22
2019-03-20T15:05:04.183Z,13.25
2019-03-20T15:10:05.296Z,13.21
2019-03-20T15:15:04.124Z,13.18
2019-03-20T15:20:06.071Z,13.05
2019-03-20T15:25:04.710Z,12.94
2019-03-20T15:30:03.119Z,13.02
2019-03-20T15:35:05.475Z,12.76
2019-03-20T15:40:04.419Z,12.62
2019-03-20T15:45:02.961Z,12.52
2019-03-20T15:50:04.405Z,12.41
2019-03-20T15:55:04.500Z,12.34
2019-03-20T16:00:02.913Z,12.33
2019-03-20T16:05:04.999Z,12.52
2019-03-20T16:10:04.676Z,12.56
2019-03-20T16:15:03.017Z,12.56
2019-03-20T16:20:05.395Z,12.37
2019-03-20T16:25:05.064Z,12.27
2019-03-20T16:30:02.495Z,12.16
2019-03-20T16:35:04.487Z,12.02
2019-03-20T16:40:04.171Z,11.92
2019-03-20T16:45:01.854Z,11.76
2019-03-20T16:50:03.996Z,11.66
2019-03-20T16:55:04.949Z,11.45
2019-03-20T17:00:02.533Z,11.36
2019-03-20T17:05:04.651Z,11.19
2019-03-20T17:10:03.888Z,11.04
2019-03-20T17:15:03.335Z,10.86
2019-03-20T17:20:04.418Z,10.66
2019-03-20T17:25:06.389Z,10.53
2019-03-20T17:30:01.838Z,10.4
2019-03-20T17:35:05.487Z,10.25
2019-03-20T17:40:04.506Z,10.12
2019-03-20T17:45:01.757Z,9.95
2019-03-20T17:50:04.158Z,9.78
2019-03-20T17:55:04.890Z,9.64
2019-03-20T18:00:02.739Z,9.46
2019-03-20T18:05:04.166Z,9.3
2019-03-20T18:10:03.805Z,9.14
2019-03-20T18:15:01.998Z,9.02
2019-03-20T18:20:03.773Z,8.83
2019-03-20T18:25:04.448Z,8.73
2019-03-20T18:30:01.844Z,8.76
2019-03-20T18:35:04.025Z,8.78
2019-03-20T18:40:04.488Z,8.78
2019-03-20T18:45:02.157Z,8.58
2019-03-20T18:50:03.551Z,8.59
2019-03-20T18:55:04.341Z,8.65
2019-03-20T19:00:02.727Z,8.7
2019-03-20T19:05:04.905Z,8.61
2019-03-20T19:10:05.057Z,8.55
2019-03-20T19:15:02.058Z,8.42
2019-03-20T19:20:03.919Z,8.14
2019-03-20T19:25:05.943Z,7.92
2019-03-20T19:30:02.565Z,7.86
2019-03-20T19:35:02.836Z,7.59
2019-03-20T19:40:03.600Z,7.54
2019-03-20T19:45:02.327Z,7.6
2019-03-20T19:50:03.228Z,7.64
2019-03-20T19:55:03.280Z,7.57
2019-03-20T20:00:01.932Z,7.64
2019-03-20T20:05:14.938Z,7.54
2019-03-20T20:10:03.350Z,7.33
2019-03-20T20:15:02.207Z,7.18
2019-03-20T20:20:03.566Z,7.19
2019-03-20T20:25:02.870Z,7.26
2019-03-20T20:30:02.777Z,7.18
2019-03-20T20:35:04.142Z,7.08
2019-03-20T20:40:06.984Z,6.98
2019-03-20T20:45:04.553Z,6.89
2019-03-20T20:50:08.469Z,6.71
2019-03-20T20:55:06.561Z,6.6
2019-03-20T21:00:05.836Z,6.55
2019-03-20T21:05:06.574Z,6.54
2019-03-20T21:10:08.688Z,6.45
2019-03-20T21:15:08.826Z,6.53
2019-03-20T21:20:07.951Z,6.65
2019-03-20T21:25:09.222Z,6.66
2019-03-20T21:30:08.152Z,6.67
2019-03-20T21:35:09.599Z,6.7
2019-03-20T21:40:07.720Z,6.76
2019-03-20T21:45:08.193Z,6.61
2019-03-20T21:50:10.585Z,6.59
2019-03-20T21:55:08.210Z,6.57
2019-03-20T22:00:07.529Z,6.59
2019-03-20T22:05:08.575Z,6.68
2019-03-20T22:10:11.452Z,6.66
2019-03-20T22:15:08.172Z,6.61
2019-03-20T22:20:09.876Z,6.53
2019-03-20T22:25:07.294Z,6.4
2019-03-20T22:30:08.141Z,6.33
2019-03-20T22:35:05.040Z,6.2
2019-03-20T22:40:04.830Z,6.14
2019-03-20T22:45:05.085Z,6.08
2019-03-20T22:50:08.554Z,6.2
2019-03-20T22:55:09.618Z,6.1
2019-03-20T23:00:08.089Z,6.1
2019-03-20T23:05:08.164Z,6.1
2019-03-20T23:10:15.277Z,6.1
2019-03-20T23:15:06.601Z,6.12
2019-03-20T23:20:07.978Z,6.16
2019-03-20T23:25:06.629Z,6.12
2019-03-20T23:30:05.860Z,6.08
2019-03-20T23:35:07.865Z,6.01
2019-03-20T23:40:07.667Z,5.94
2019-03-20T23:45:07.595Z,5.89
2019-03-20T23:50:07.603Z,5.74
2019-03-20T23:55:08.327Z,5.56
